createdAt,value
2023-02-28T00:01:35.221Z,111.57
2023-02-28T00:04:02.657Z,111.18
2023-02-28T00:06:30.430Z,111.22
2023-02-28T00:09:00.269Z,111.88
2023-02-28T00:11:28.179Z,110.90
2023-02-28T00:13:55.795Z,108.97
2023-02-28T00:16:24.377Z,111.28
2023-02-28T00:18:51.951Z,111.90
2023-02-28T00:21:20.219Z,111.68
2023-02-28T00:23:48.386Z,112.00
2023-02-28T00:26:15.859Z,108.07
2023-02-28T00:28:46.459Z,111.15
2023-02-28T00:31:13.869Z,110.20
2023-02-28T00:33:40.903Z,111.38
2023-02-28T00:36:11.953Z,110.60
2023-02-28T00:38:41.052Z,111.90
2023-02-28T00:41:09.435Z,110.97
2023-02-28T00:43:39.913Z,111.05
2023-02-28T00:46:08.123Z,111.47
2023-02-28T00:48:35.897Z,111.65
2023-02-28T00:51:04.444Z,111.47
2023-02-28T00:53:33.624Z,110.03
2023-02-28T00:56:01.593Z,111.55
2023-02-28T00:58:29.207Z,110.90
2023-02-28T01:00:56.492Z,110.88
2023-02-28T01:03:24.198Z,110.53
2023-02-28T01:05:53.877Z,111.07
2023-02-28T01:08:21.776Z,111.75
2023-02-28T01:10:49.232Z,111.32
2023-02-28T01:13:17.280Z,110.82
2023-02-28T01:15:54.962Z,111.13
2023-02-28T01:18:23.143Z,111.53
2023-02-28T01:20:52.550Z,111.38
2023-02-28T01:23:23.182Z,111.47
2023-02-28T01:25:54.114Z,111.80
2023-02-28T01:28:22.340Z,110.93
2023-02-28T01:30:52.215Z,111.38
2023-02-28T01:33:19.310Z,111.32
2023-02-28T01:35:46.410Z,111.63
2023-02-28T01:38:22.138Z,111.32
2023-02-28T01:40:50.656Z,110.93
2023-02-28T01:43:28.847Z,111.18
2023-02-28T01:45:58.969Z,111.38
2023-02-28T01:48:32.901Z,111.90
2023-02-28T01:51:14.429Z,111.28
2023-02-28T01:53:52.715Z,111.28
2023-02-28T01:56:30.414Z,110.97
2023-02-28T01:58:58.217Z,110.82
2023-02-28T02:01:28.777Z,110.53
2023-02-28T02:04:02.483Z,110.63
2023-02-28T02:06:40.275Z,111.57
2023-02-28T02:09:12.066Z,110.32
2023-02-28T02:11:43.559Z,110.63
2023-02-28T02:14:17.791Z,111.78
2023-02-28T02:17:29.328Z,109.32
2023-02-28T02:20:45.943Z,110.20
2023-02-28T02:24:04.507Z,111.28
2023-02-28T02:27:19.102Z,110.65
2023-02-28T02:30:44.163Z,110.93
2023-02-28T02:34:09.583Z,111.30
2023-02-28T02:36:54.873Z,111.13
2023-02-28T02:40:14.916Z,111.18
2023-02-28T02:43:07.747Z,110.88
2023-02-28T02:45:51.719Z,111.18
2023-02-28T02:48:26.343Z,110.32
2023-02-28T02:50:59.969Z,109.75
2023-02-28T02:53:36.410Z,110.53
2023-02-28T02:56:06.915Z,111.30
2023-02-28T02:58:44.077Z,110.97
2023-02-28T03:01:28.727Z,110.78
2023-02-28T03:04:10.436Z,111.80
2023-02-28T03:06:42.098Z,111.32
2023-02-28T03:09:10.451Z,111.07
2023-02-28T03:11:42.902Z,109.63
2023-02-28T03:15:00.901Z,111.32
2023-02-28T03:17:52.986Z,111.47
2023-02-28T03:20:39.233Z,111.28
2023-02-28T03:23:20.827Z,110.97
2023-02-28T03:26:05.452Z,111.18
2023-02-28T03:29:05.665Z,110.88
2023-02-28T03:31:50.702Z,111.18
2023-02-28T03:34:30.898Z,110.10
2023-02-28T03:37:09.928Z,110.38
2023-02-28T03:39:51.461Z,110.93
2023-02-28T03:42:28.821Z,111.07
2023-02-28T03:45:14.884Z,110.35
2023-02-28T03:48:18.653Z,109.85
2023-02-28T03:50:54.448Z,110.88
2023-02-28T03:53:54.061Z,110.95
2023-02-28T03:56:39.197Z,110.93
2023-02-28T03:59:30.162Z,110.90
2023-02-28T04:01:59.384Z,109.72
2023-02-28T04:04:26.940Z,111.18
2023-02-28T04:07:06.566Z,110.68
2023-02-28T04:09:34.080Z,110.78
2023-02-28T04:12:01.177Z,110.70
2023-02-28T04:14:28.312Z,109.65
2023-02-28T04:16:55.389Z,110.57
2023-02-28T04:19:22.880Z,110.78
2023-02-28T04:21:53.924Z,110.20
2023-02-28T04:24:27.997Z,110.97
2023-02-28T04:26:58.264Z,111.15
2023-02-28T04:29:30.721Z,108.78
2023-02-28T04:31:59.919Z,110.72
2023-02-28T04:34:30.087Z,110.57
2023-02-28T04:37:11.986Z,111.07
2023-02-28T04:39:42.060Z,110.65
2023-02-28T04:42:09.986Z,109.93
2023-02-28T04:44:37.081Z,110.35
2023-02-28T04:47:04.569Z,111.07
2023-02-28T04:49:32.120Z,110.05
2023-02-28T04:51:59.166Z,110.68
2023-02-28T04:54:26.283Z,110.43
2023-02-28T04:56:53.767Z,110.47
2023-02-28T04:59:21.410Z,110.57
2023-02-28T05:01:50.263Z,110.72
2023-02-28T05:04:18.005Z,110.43
2023-02-28T05:06:45.525Z,109.93
2023-02-28T05:09:12.690Z,110.68
2023-02-28T05:11:40.483Z,110.32
2023-02-28T05:14:14.789Z,109.93
2023-02-28T05:16:42.268Z,110.68
2023-02-28T05:19:10.023Z,110.88
2023-02-28T05:21:56.788Z,110.38
2023-02-28T05:24:24.433Z,110.38
2023-02-28T05:26:55.316Z,109.65
2023-02-28T05:29:22.818Z,110.63
2023-02-28T05:31:49.902Z,109.82
2023-02-28T05:34:17.002Z,110.57
2023-02-28T05:36:44.959Z,110.38
2023-02-28T05:39:13.715Z,110.78
2023-02-28T05:41:43.840Z,110.90
2023-02-28T05:44:12.137Z,110.43
2023-02-28T05:46:39.413Z,110.63
2023-02-28T05:49:06.527Z,110.88
2023-02-28T05:51:35.213Z,110.60
2023-02-28T05:54:03.200Z,110.53
2023-02-28T05:56:30.593Z,110.18
2023-02-28T05:58:57.826Z,110.38
2023-02-28T06:01:39.551Z,109.72
2023-02-28T06:04:22.176Z,110.57
2023-02-28T06:06:51.549Z,110.78
2023-02-28T06:09:19.971Z,110.00
2023-02-28T06:11:47.360Z,110.57
2023-02-28T06:14:19.909Z,109.63
2023-02-28T06:16:47.902Z,109.85
2023-02-28T06:19:16.125Z,109.82
2023-02-28T06:21:43.895Z,109.53
2023-02-28T06:24:11.863Z,110.32
2023-02-28T06:26:39.325Z,110.18
2023-02-28T06:29:06.811Z,109.93
2023-02-28T06:31:34.259Z,111.20
2023-02-28T06:34:01.902Z,110.90
2023-02-28T06:36:29.376Z,110.65
2023-02-28T06:38:56.972Z,110.43
2023-02-28T06:41:27.256Z,110.38
2023-02-28T06:43:54.960Z,110.75
2023-02-28T06:46:22.616Z,110.85
2023-02-28T06:48:50.453Z,110.95
2023-02-28T06:51:23.021Z,110.07
2023-02-28T06:53:50.833Z,109.88
2023-02-28T06:56:19.441Z,110.68
2023-02-28T06:58:51.621Z,110.53
2023-02-28T07:01:20.049Z,110.40
2023-02-28T07:03:52.940Z,110.73
2023-02-28T07:06:23.474Z,110.47
2023-02-28T07:08:53.619Z,110.17
2023-02-28T07:11:27.351Z,109.72
2023-02-28T07:13:56.889Z,110.10
2023-02-28T07:16:26.190Z,110.00
2023-02-28T07:18:56.594Z,111.43
2023-02-28T07:21:24.099Z,111.07
2023-02-28T07:23:52.249Z,111.27
2023-02-28T07:26:21.178Z,109.50
2023-02-28T07:28:50.441Z,109.27
2023-02-28T07:31:19.081Z,110.37
2023-02-28T07:33:46.336Z,109.07
2023-02-28T07:36:19.665Z,111.20
2023-02-28T07:38:50.671Z,110.37
2023-02-28T07:41:20.216Z,110.47
2023-02-28T07:43:47.985Z,110.97
2023-02-28T07:46:17.537Z,110.77
2023-02-28T07:48:45.548Z,108.97
2023-02-28T07:51:13.082Z,111.20
2023-02-28T07:53:40.205Z,110.23
2023-02-28T07:56:08.113Z,110.93
2023-02-28T07:58:35.878Z,111.50
2023-02-28T08:01:11.602Z,111.37
2023-02-28T08:03:40.261Z,108.97
2023-02-28T08:06:17.147Z,111.37
2023-02-28T08:08:45.301Z,111.37
2023-02-28T08:11:13.837Z,111.23
2023-02-28T08:13:40.964Z,110.60
2023-02-28T08:16:07.929Z,111.30
2023-02-28T08:18:35.596Z,111.47
2023-02-28T08:21:09.839Z,109.20
2023-02-28T08:23:37.585Z,111.97
2023-02-28T08:26:05.405Z,110.40
2023-02-28T08:28:33.460Z,111.10
2023-02-28T08:31:00.992Z,109.77
2023-02-28T08:33:29.069Z,111.57
2023-02-28T08:35:57.530Z,110.47
2023-02-28T08:38:25.468Z,111.33
2023-02-28T08:41:08.155Z,112.27
2023-02-28T08:43:36.850Z,111.07
2023-02-28T08:46:04.738Z,112.03
2023-02-28T08:48:35.362Z,109.17
2023-02-28T08:51:08.846Z,111.07
2023-02-28T08:53:38.651Z,112.27
2023-02-28T08:56:17.000Z,111.80
2023-02-28T08:58:45.438Z,112.00
2023-02-28T09:03:40.005Z,112.87
2023-02-28T09:06:07.232Z,112.50
2023-02-28T09:08:34.567Z,112.60
2023-02-28T09:11:03.430Z,112.70
2023-02-28T09:13:31.610Z,111.77
2023-02-28T09:16:01.486Z,113.47
2023-02-28T09:18:30.358Z,112.47
2023-02-28T09:20:58.677Z,114.20
2023-02-28T09:23:26.203Z,115.40
2023-02-28T09:25:55.963Z,115.30
2023-02-28T09:28:24.144Z,114.47
2023-02-28T09:30:54.917Z,115.60
2023-02-28T09:33:23.032Z,116.10
2023-02-28T09:35:51.554Z,115.90
2023-02-28T09:38:18.953Z,115.90
2023-02-28T09:40:59.227Z,114.60
2023-02-28T09:43:37.907Z,115.00
2023-02-28T09:46:49.541Z,116.50
2023-02-28T09:49:24.875Z,116.60
2023-02-28T09:52:10.040Z,115.93
2023-02-28T09:54:38.077Z,116.47
2023-02-28T09:57:20.270Z,116.27
2023-02-28T10:00:26.066Z,116.20
2023-02-28T10:03:26.242Z,116.77
2023-02-28T10:06:09.112Z,116.60
2023-02-28T10:08:57.027Z,115.27
2023-02-28T10:11:26.528Z,116.60
2023-02-28T10:14:19.884Z,116.60
2023-02-28T10:16:59.470Z,116.40
2023-02-28T10:19:50.052Z,116.00
2023-02-28T10:22:35.334Z,116.40
2023-02-28T10:25:20.082Z,116.77
2023-02-28T10:27:47.553Z,116.60
2023-02-28T10:30:15.218Z,116.50
2023-02-28T10:32:54.561Z,115.83
2023-02-28T10:35:27.077Z,116.30
2023-02-28T10:38:01.826Z,116.77
2023-02-28T10:40:38.898Z,116.50
2023-02-28T10:43:22.073Z,116.47
2023-02-28T10:46:03.531Z,114.37
2023-02-28T10:48:38.349Z,115.50
2023-02-28T10:51:13.332Z,115.97
2023-02-28T10:54:03.362Z,114.07
2023-02-28T10:56:32.336Z,115.43
2023-02-28T10:59:09.714Z,115.60
2023-02-28T11:01:46.399Z,113.87
2023-02-28T11:04:24.832Z,115.30
2023-02-28T11:07:25.795Z,115.30
2023-02-28T11:09:58.900Z,115.77
2023-02-28T11:12:50.841Z,114.17
2023-02-28T11:15:31.807Z,114.93
2023-02-28T11:18:20.322Z,114.97
2023-02-28T11:20:53.186Z,115.47
2023-02-28T11:23:22.343Z,114.77
2023-02-28T11:25:54.661Z,115.00
2023-02-28T11:28:39.515Z,115.00
2023-02-28T11:31:12.633Z,115.60
2023-02-28T11:33:46.628Z,115.23
2023-02-28T11:36:31.921Z,115.00
2023-02-28T11:39:12.362Z,115.40
2023-02-28T11:42:08.357Z,115.73
2023-02-28T11:45:33.574Z,115.53
2023-02-28T11:48:46.726Z,115.93
2023-02-28T11:51:36.416Z,116.27
2023-02-28T11:54:42.871Z,114.90
2023-02-28T11:57:33.661Z,116.20
2023-02-28T12:00:40.751Z,115.47
2023-02-28T12:03:28.737Z,115.17
2023-02-28T12:06:35.273Z,116.67
2023-02-28T12:09:52.805Z,116.43
2023-02-28T12:12:47.558Z,114.57
2023-02-28T12:15:16.962Z,115.87
2023-02-28T12:18:18.410Z,113.60
2023-02-28T12:21:23.742Z,115.40
2023-02-28T12:24:40.815Z,115.83
2023-02-28T12:27:17.331Z,116.20
2023-02-28T12:30:22.675Z,116.00
2023-02-28T12:33:10.356Z,116.30
2023-02-28T12:35:56.500Z,114.87
2023-02-28T12:38:47.437Z,116.47
2023-02-28T12:41:23.790Z,116.00
2023-02-28T12:44:33.697Z,116.77
2023-02-28T12:47:11.822Z,115.67
2023-02-28T12:49:53.582Z,116.50
2023-02-28T12:52:36.979Z,116.00
2023-02-28T12:55:17.565Z,116.67
2023-02-28T12:58:32.423Z,116.77
2023-02-28T13:01:55.169Z,116.37
2023-02-28T13:05:01.985Z,116.60
2023-02-28T13:08:28.384Z,116.00
2023-02-28T13:10:55.829Z,115.87
2023-02-28T13:13:30.675Z,116.27
2023-02-28T13:16:02.886Z,116.97
2023-02-28T13:18:33.486Z,116.17
2023-02-28T13:21:04.944Z,116.87
2023-02-28T13:23:56.816Z,116.13
2023-02-28T13:26:51.167Z,115.77
2023-02-28T13:29:49.183Z,115.63
2023-02-28T13:32:38.501Z,116.40
2023-02-28T13:35:05.568Z,116.77
2023-02-28T13:37:47.416Z,115.77
2023-02-28T13:40:14.580Z,116.83
2023-02-28T13:42:59.867Z,115.97
2023-02-28T13:45:31.518Z,116.57
2023-02-28T13:48:20.363Z,115.47
2023-02-28T13:50:48.327Z,116.23
2023-02-28T13:53:15.349Z,116.10
2023-02-28T13:56:31.208Z,115.70
2023-02-28T13:59:41.287Z,114.23
2023-02-28T14:02:50.190Z,116.47
2023-02-28T14:05:26.937Z,115.70
2023-02-28T14:08:21.988Z,115.60
2023-02-28T14:11:05.253Z,114.80
2023-02-28T14:13:48.106Z,115.47
2023-02-28T14:16:28.448Z,116.10
2023-02-28T14:19:23.763Z,116.07
2023-02-28T14:22:13.671Z,115.27
2023-02-28T14:25:24.767Z,116.83
2023-02-28T14:28:29.037Z,116.27
2023-02-28T14:31:14.123Z,115.50
2023-02-28T14:34:18.498Z,116.97
2023-02-28T14:36:46.221Z,115.10
2023-02-28T14:39:31.619Z,115.77
2023-02-28T14:42:05.679Z,116.07
2023-02-28T14:44:33.530Z,114.83
2023-02-28T14:47:07.645Z,116.50
2023-02-28T14:49:46.425Z,115.83
2023-02-28T14:52:23.541Z,115.83
2023-02-28T14:55:18.452Z,116.23
2023-02-28T14:58:07.308Z,115.50
2023-02-28T15:00:41.312Z,116.13
2023-02-28T15:03:35.706Z,115.50
2023-02-28T15:06:17.085Z,115.23
2023-02-28T15:08:46.072Z,115.87
2023-02-28T15:11:25.053Z,115.60
2023-02-28T15:13:58.787Z,115.57
2023-02-28T15:16:42.947Z,114.60
2023-02-28T15:19:27.127Z,115.67
2023-02-28T15:22:08.363Z,115.17
2023-02-28T15:24:45.404Z,116.30
2023-02-28T15:27:32.934Z,115.40
2023-02-28T15:30:21.161Z,116.23
2023-02-28T15:33:12.519Z,115.77
2023-02-28T15:35:40.627Z,115.77
2023-02-28T15:38:28.248Z,115.23
2023-02-28T15:40:59.400Z,115.40
2023-02-28T15:43:39.058Z,115.33
2023-02-28T15:46:16.807Z,115.57
2023-02-28T15:48:58.757Z,116.10
2023-02-28T15:51:38.475Z,115.07
2023-02-28T15:54:25.570Z,115.60
2023-02-28T15:56:58.118Z,116.43
2023-02-28T15:59:31.841Z,115.37
2023-02-28T16:02:10.760Z,116.20
2023-02-28T16:04:55.790Z,115.80
2023-02-28T16:07:23.215Z,115.60
2023-02-28T16:09:50.228Z,116.00
2023-02-28T16:12:17.382Z,115.70
2023-02-28T16:14:46.256Z,115.43
2023-02-28T16:17:39.016Z,115.23
2023-02-28T16:20:29.535Z,116.00
2023-02-28T16:22:57.282Z,115.10
2023-02-28T16:25:42.568Z,115.50
2023-02-28T16:28:20.901Z,115.47
2023-02-28T16:30:48.430Z,115.20
2023-02-28T16:33:15.857Z,115.17
2023-02-28T16:35:42.837Z,114.47
2023-02-28T16:38:10.593Z,115.67
2023-02-28T16:40:38.522Z,114.90
2023-02-28T16:43:16.852Z,115.60
2023-02-28T16:45:44.379Z,114.27
2023-02-28T16:48:17.212Z,114.93
2023-02-28T16:50:45.449Z,114.17
2023-02-28T16:53:12.494Z,114.90
2023-02-28T16:55:39.552Z,114.07
2023-02-28T16:58:06.993Z,114.07
2023-02-28T17:00:34.665Z,114.20
2023-02-28T17:03:03.748Z,114.07
2023-02-28T17:05:40.529Z,114.50
2023-02-28T17:08:07.531Z,113.77
2023-02-28T17:10:35.032Z,113.13
2023-02-28T17:13:14.138Z,114.70
2023-02-28T17:15:42.612Z,114.87
2023-02-28T17:18:17.023Z,115.27
2023-02-28T17:20:44.203Z,114.40
2023-02-28T17:23:11.187Z,114.00
2023-02-28T17:25:38.202Z,112.80
2023-02-28T17:28:05.735Z,114.60
2023-02-28T17:30:36.080Z,113.97
2023-02-28T17:33:03.137Z,114.27
2023-02-28T17:35:30.233Z,114.73
2023-02-28T17:37:57.717Z,114.80
2023-02-28T17:40:25.528Z,113.97
2023-02-28T17:42:53.125Z,113.77
2023-02-28T17:45:20.796Z,113.13
2023-02-28T17:47:53.715Z,114.63
2023-02-28T17:50:23.051Z,114.40
2023-02-28T17:52:51.288Z,113.80
2023-02-28T17:55:19.894Z,113.57
2023-02-28T17:57:47.614Z,114.80
2023-02-28T18:00:18.313Z,112.97
2023-02-28T18:02:45.762Z,113.97
2023-02-28T18:05:13.126Z,113.27
2023-02-28T18:07:41.550Z,114.70
2023-02-28T18:10:20.151Z,113.87
2023-02-28T18:12:52.412Z,113.50
2023-02-28T18:15:22.890Z,114.20
2023-02-28T18:17:50.896Z,114.03
2023-02-28T18:20:19.244Z,113.97
2023-02-28T18:22:47.353Z,114.00
2023-02-28T18:25:16.776Z,114.43
2023-02-28T18:27:54.302Z,114.50
2023-02-28T18:30:22.494Z,113.67
2023-02-28T18:32:49.726Z,115.17
2023-02-28T18:35:34.372Z,114.03
2023-02-28T18:38:09.745Z,114.47
2023-02-28T18:40:38.232Z,112.87
2023-02-28T18:43:05.861Z,114.00
2023-02-28T18:45:38.350Z,111.57
2023-02-28T18:48:06.095Z,114.37
2023-02-28T18:50:33.055Z,113.17
2023-02-28T18:53:00.258Z,113.37
2023-02-28T18:55:27.784Z,113.37
2023-02-28T18:57:55.546Z,113.27
2023-02-28T19:00:25.111Z,111.67
2023-02-28T19:02:53.234Z,114.33
2023-02-28T19:05:20.770Z,114.40
2023-02-28T19:07:47.979Z,114.63
2023-02-28T19:10:15.898Z,114.20
2023-02-28T19:12:43.447Z,114.07
2023-02-28T19:15:12.476Z,112.67
2023-02-28T19:17:40.556Z,113.37
2023-02-28T19:20:10.717Z,113.07
2023-02-28T19:22:38.608Z,114.33
2023-02-28T19:25:07.728Z,114.07
2023-02-28T19:27:35.456Z,113.17
2023-02-28T19:30:04.407Z,114.27
2023-02-28T19:32:31.598Z,113.17
2023-02-28T19:34:59.135Z,111.43
2023-02-28T19:37:26.230Z,112.77
2023-02-28T19:39:56.842Z,113.10
2023-02-28T19:42:24.776Z,114.23
2023-02-28T19:44:52.166Z,113.13
2023-02-28T19:47:19.216Z,113.10
2023-02-28T19:49:46.640Z,113.37
2023-02-28T19:52:15.555Z,111.97
2023-02-28T19:54:43.213Z,113.10
2023-02-28T19:57:10.766Z,113.30
2023-02-28T19:59:39.709Z,109.70
2023-02-28T20:02:16.303Z,113.07
2023-02-28T20:04:47.987Z,111.60
2023-02-28T20:07:17.880Z,111.30
2023-02-28T20:09:45.451Z,113.30
2023-02-28T20:12:23.429Z,113.50
2023-02-28T20:14:52.877Z,110.27
2023-02-28T20:17:20.022Z,113.47
2023-02-28T20:19:47.535Z,113.10
2023-02-28T20:22:15.180Z,111.97
2023-02-28T20:24:42.449Z,112.10
2023-02-28T20:27:09.576Z,111.57
2023-02-28T20:29:36.718Z,111.20
2023-02-28T20:32:03.900Z,110.37
2023-02-28T20:34:30.979Z,111.67
2023-02-28T20:36:59.520Z,112.27
2023-02-28T20:39:26.758Z,113.67
2023-02-28T20:41:54.204Z,113.07
2023-02-28T20:44:21.321Z,111.10
2023-02-28T20:46:48.730Z,113.10
2023-02-28T20:49:16.189Z,112.50
2023-02-28T20:51:43.270Z,113.23
2023-02-28T20:54:11.660Z,113.17
2023-02-28T20:56:39.015Z,111.77
2023-02-28T20:59:06.132Z,112.97
2023-02-28T21:01:33.645Z,111.90
2023-02-28T21:04:08.622Z,112.27
2023-02-28T21:06:47.495Z,112.20
2023-02-28T21:09:16.011Z,113.37
2023-02-28T21:11:43.309Z,112.57
2023-02-28T21:14:17.737Z,112.80
2023-02-28T21:16:44.908Z,112.73
2023-02-28T21:19:12.986Z,112.50
2023-02-28T21:21:47.696Z,110.70
2023-02-28T21:24:19.514Z,111.37
2023-02-28T21:26:47.427Z,112.40
2023-02-28T21:29:15.268Z,113.77
2023-02-28T21:31:43.346Z,113.37
2023-02-28T21:34:13.461Z,113.23
2023-02-28T21:36:47.254Z,111.00
2023-02-28T21:39:19.209Z,111.60
2023-02-28T21:41:47.468Z,112.10
2023-02-28T21:44:18.680Z,110.17
2023-02-28T21:46:54.573Z,111.77
2023-02-28T21:49:21.669Z,112.60
2023-02-28T21:51:48.646Z,113.47
2023-02-28T21:54:16.208Z,111.97
2023-02-28T21:56:44.073Z,113.27
2023-02-28T21:59:11.075Z,111.77
2023-02-28T22:01:43.862Z,113.17
2023-02-28T22:04:20.986Z,113.07
2023-02-28T22:06:55.122Z,113.07
2023-02-28T22:09:22.492Z,112.80
2023-02-28T22:11:50.198Z,113.77
2023-02-28T22:14:17.640Z,112.10
2023-02-28T22:16:51.723Z,113.60
2023-02-28T22:19:21.464Z,113.03
2023-02-28T22:21:50.056Z,112.83
2023-02-28T22:24:20.074Z,113.37
2023-02-28T22:26:49.535Z,112.37
2023-02-28T22:29:16.993Z,113.17
2023-02-28T22:31:44.021Z,112.80
2023-02-28T22:34:12.853Z,112.90
2023-02-28T22:36:42.669Z,111.57
2023-02-28T22:39:10.896Z,111.87
2023-02-28T22:41:38.384Z,111.30
2023-02-28T22:44:07.109Z,111.83
2023-02-28T22:46:36.176Z,113.87
2023-02-28T22:49:05.772Z,112.17
2023-02-28T22:51:34.699Z,111.87
2023-02-28T22:54:02.041Z,113.07
2023-02-28T22:56:30.948Z,110.17
2023-02-28T22:59:00.913Z,112.40
2023-02-28T23:01:32.362Z,110.83
2023-02-28T23:04:00.572Z,111.77
2023-02-28T23:06:43.388Z,112.07
2023-02-28T23:09:18.847Z,113.07
2023-02-28T23:11:50.268Z,111.77
2023-02-28T23:14:20.869Z,111.67
2023-02-28T23:16:55.927Z,113.47
2023-02-28T23:19:31.835Z,113.00
2023-02-28T23:22:01.648Z,113.70
2023-02-28T23:24:33.090Z,112.00
2023-02-28T23:27:04.742Z,113.50
2023-02-28T23:29:34.162Z,112.70
2023-02-28T23:32:02.166Z,111.37
2023-02-28T23:34:32.340Z,110.07
2023-02-28T23:37:02.160Z,112.67
2023-02-28T23:39:31.526Z,112.20
2023-02-28T23:41:59.329Z,112.57
2023-02-28T23:44:26.811Z,113.27
2023-02-28T23:46:54.581Z,113.50
2023-02-28T23:49:23.281Z,111.77
2023-02-28T23:51:52.026Z,113.57
2023-02-28T23:54:19.350Z,112.57
2023-02-28T23:56:46.863Z,113.60
2023-02-28T23:59:14.082Z,112.87
